createdAt,value
2022-08-27T00:00:17.292Z,20.28
2022-08-27T00:01:17.342Z,20.28
2022-08-27T00:02:17.388Z,20.29
2022-08-27T00:03:17.338Z,20.29
2022-08-27T00:04:17.437Z,20.31
2022-08-27T00:05:17.383Z,20.30
2022-08-27T00:06:17.395Z,20.30
2022-08-27T00:07:17.406Z,20.29
2022-08-27T00:08:17.403Z,20.30
2022-08-27T00:09:17.609Z,20.30
2022-08-27T00:10:17.405Z,20.30
2022-08-27T00:11:17.458Z,20.28
2022-08-27T00:12:17.418Z,20.27
2022-08-27T00:13:17.416Z,20.27
2022-08-27T00:14:17.438Z,20.29
2022-08-27T00:15:17.774Z,20.29
2022-08-27T00:16:17.512Z,20.27
2022-08-27T00:17:17.437Z,20.27
2022-08-27T00:18:22.001Z,20.27
2022-08-27T00:19:17.445Z,20.27
2022-08-27T00:20:17.434Z,20.26
2022-08-27T00:21:17.438Z,20.26
2022-08-27T00:22:17.454Z,20.26
2022-08-27T00:23:17.444Z,20.25
2022-08-27T00:24:17.447Z,20.25
2022-08-27T00:25:17.448Z,20.24
2022-08-27T00:26:17.436Z,20.23
2022-08-27T00:27:17.450Z,20.20
2022-08-27T00:28:17.456Z,20.19
2022-08-27T00:29:17.462Z,20.16
2022-08-27T00:30:17.450Z,20.13
2022-08-27T00:31:17.479Z,20.12
2022-08-27T00:32:17.437Z,20.10
2022-08-27T00:33:17.472Z,20.09
2022-08-27T00:34:17.456Z,20.08
2022-08-27T00:35:17.466Z,20.06
2022-08-27T00:36:17.444Z,20.06
2022-08-27T00:37:17.442Z,20.02
2022-08-27T00:38:17.447Z,20.02
2022-08-27T00:39:17.460Z,19.99
2022-08-27T00:40:17.507Z,19.98
2022-08-27T00:41:18.414Z,19.95
2022-08-27T00:42:17.479Z,19.94
2022-08-27T00:43:17.457Z,19.93
2022-08-27T00:44:17.463Z,19.92
2022-08-27T00:45:17.447Z,19.92
2022-08-27T00:46:17.468Z,19.91
2022-08-27T00:47:17.457Z,19.92
2022-08-27T00:48:18.179Z,19.92
2022-08-27T00:49:17.475Z,19.92
2022-08-27T00:50:17.460Z,19.91
2022-08-27T00:51:17.492Z,19.91
2022-08-27T00:52:17.462Z,19.90
2022-08-27T00:53:17.500Z,19.90
2022-08-27T00:54:18.791Z,19.91
2022-08-27T00:55:17.472Z,19.92
2022-08-27T00:56:17.486Z,19.93
2022-08-27T00:57:17.496Z,19.95
2022-08-27T00:58:17.482Z,19.97
2022-08-27T00:59:17.498Z,19.97
2022-08-27T01:00:17.490Z,19.99
2022-08-27T01:01:17.607Z,20.00
2022-08-27T01:02:17.589Z,20.00
2022-08-27T01:03:17.490Z,20.01
2022-08-27T01:04:17.506Z,20.01
2022-08-27T01:05:17.480Z,20.02
2022-08-27T01:06:17.476Z,20.04
2022-08-27T01:07:17.504Z,20.02
2022-08-27T01:08:17.489Z,20.03
2022-08-27T01:09:17.510Z,20.03
2022-08-27T01:10:17.485Z,20.03
2022-08-27T01:11:17.486Z,20.03
2022-08-27T01:12:17.485Z,20.02
2022-08-27T01:13:17.514Z,20.00
2022-08-27T01:14:17.494Z,19.99
2022-08-27T01:15:20.095Z,19.97
2022-08-27T01:16:17.703Z,19.95
2022-08-27T01:17:17.653Z,19.93
2022-08-27T01:18:17.664Z,19.93
2022-08-27T01:19:17.658Z,19.91
2022-08-27T01:20:17.675Z,19.89
2022-08-27T01:21:17.682Z,19.87
2022-08-27T01:22:21.710Z,19.86
2022-08-27T01:23:17.681Z,19.85
2022-08-27T01:24:17.715Z,19.84
2022-08-27T01:25:17.686Z,19.83
2022-08-27T01:26:17.699Z,19.82
2022-08-27T01:27:17.738Z,19.81
2022-08-27T01:28:17.703Z,19.79
2022-08-27T01:29:17.725Z,19.78
2022-08-27T01:30:17.723Z,19.76
2022-08-27T01:31:17.744Z,19.73
2022-08-27T01:32:17.733Z,19.73
2022-08-27T01:33:17.720Z,19.71
2022-08-27T01:34:17.719Z,19.68
2022-08-27T01:35:17.731Z,19.65
2022-08-27T01:36:17.720Z,19.64
2022-08-27T01:37:19.772Z,19.61
2022-08-27T01:38:30.174Z,19.60
2022-08-27T01:39:17.736Z,19.57
2022-08-27T01:40:17.754Z,19.57
2022-08-27T01:41:17.762Z,19.53
2022-08-27T01:42:47.203Z,19.51
2022-08-27T01:43:47.243Z,19.49
2022-08-27T01:44:47.243Z,19.48
2022-08-27T01:45:47.216Z,19.48
2022-08-27T01:46:47.279Z,19.46
2022-08-27T01:47:47.237Z,19.45
2022-08-27T01:48:47.247Z,19.45
2022-08-27T01:49:47.275Z,19.45
2022-08-27T01:50:47.218Z,19.47
2022-08-27T01:51:47.223Z,19.46
2022-08-27T01:52:47.251Z,19.48
2022-08-27T01:53:47.222Z,19.49
2022-08-27T01:54:47.281Z,19.50
2022-08-27T01:55:48.173Z,19.52
2022-08-27T01:56:47.245Z,19.54
2022-08-27T01:57:47.276Z,19.54
2022-08-27T01:58:47.259Z,19.54
2022-08-27T01:59:47.271Z,19.54
2022-08-27T02:00:47.332Z,19.55
2022-08-27T02:01:47.302Z,19.56
2022-08-27T02:02:47.253Z,19.56
2022-08-27T02:03:47.249Z,19.57
2022-08-27T02:04:47.267Z,19.57
2022-08-27T02:05:47.246Z,19.57
2022-08-27T02:06:47.281Z,19.56
2022-08-27T02:07:47.291Z,19.58
2022-08-27T02:08:47.260Z,19.58
2022-08-27T02:09:47.266Z,19.59
2022-08-27T02:10:47.270Z,19.59
2022-08-27T02:11:47.269Z,19.59
2022-08-27T02:12:47.296Z,19.58
2022-08-27T02:13:47.270Z,19.59
2022-08-27T02:14:47.314Z,19.58
2022-08-27T02:15:47.467Z,19.58
2022-08-27T02:16:52.077Z,19.59
2022-08-27T02:17:47.308Z,19.59
2022-08-27T02:18:47.289Z,19.58
2022-08-27T02:19:47.423Z,19.58
2022-08-27T02:20:47.451Z,19.57
2022-08-27T02:21:47.446Z,19.56
2022-08-27T02:22:47.439Z,19.56
2022-08-27T02:23:47.456Z,19.56
2022-08-27T02:24:47.479Z,19.54
2022-08-27T02:25:47.499Z,19.55
2022-08-27T02:26:47.500Z,19.56
2022-08-27T02:27:47.501Z,19.57
2022-08-27T02:28:47.517Z,19.57
2022-08-27T02:29:47.565Z,19.58
2022-08-27T02:30:47.574Z,19.58
2022-08-27T02:31:47.626Z,19.60
2022-08-27T02:32:47.583Z,19.60
2022-08-27T02:33:47.573Z,19.60
2022-08-27T02:34:47.626Z,19.60
2022-08-27T02:35:47.631Z,19.57
2022-08-27T02:36:47.649Z,19.56
2022-08-27T02:37:47.652Z,19.54
2022-08-27T02:38:47.658Z,19.51
2022-08-27T02:39:47.665Z,19.48
2022-08-27T02:40:47.712Z,19.46
2022-08-27T02:41:47.692Z,19.43
2022-08-27T02:42:47.714Z,19.41
2022-08-27T02:43:47.749Z,19.37
2022-08-27T02:44:47.726Z,19.35
2022-08-27T02:45:47.760Z,19.33
2022-08-27T02:46:47.818Z,19.29
2022-08-27T02:47:47.739Z,19.27
2022-08-27T02:48:47.757Z,19.24
2022-08-27T02:49:47.801Z,19.21
2022-08-27T02:50:47.781Z,19.19
2022-08-27T02:51:47.831Z,19.15
2022-08-27T02:52:47.800Z,19.13
2022-08-27T02:53:47.834Z,19.10
2022-08-27T02:54:47.865Z,19.06
2022-08-27T02:55:47.877Z,19.03
2022-08-27T02:56:47.883Z,19.00
2022-08-27T02:57:47.898Z,19.00
2022-08-27T02:58:47.901Z,18.98
2022-08-27T02:59:47.905Z,18.99
2022-08-27T03:00:47.927Z,18.99
2022-08-27T03:01:48.060Z,19.01
2022-08-27T03:02:48.006Z,19.01
2022-08-27T03:03:47.961Z,19.03
2022-08-27T03:04:47.992Z,19.06
2022-08-27T03:05:47.984Z,19.07
2022-08-27T03:06:47.992Z,19.09
2022-08-27T03:07:48.002Z,19.10
2022-08-27T03:08:53.218Z,19.12
2022-08-27T03:09:48.047Z,19.13
2022-08-27T03:10:48.014Z,19.14
2022-08-27T03:11:48.011Z,19.14
2022-08-27T03:12:48.038Z,19.15
2022-08-27T03:13:47.989Z,19.16
2022-08-27T03:14:48.029Z,19.16
2022-08-27T03:15:48.068Z,19.18
2022-08-27T03:16:48.042Z,19.18
2022-08-27T03:17:48.049Z,19.18
2022-08-27T03:18:48.019Z,19.18
2022-08-27T03:19:48.037Z,19.19
2022-08-27T03:20:48.041Z,19.18
2022-08-27T03:21:54.655Z,19.19
2022-08-27T03:22:48.036Z,19.18
2022-08-27T03:23:48.038Z,19.19
2022-08-27T03:24:48.065Z,19.19
2022-08-27T03:25:48.065Z,19.18
2022-08-27T03:26:52.907Z,19.19
2022-08-27T03:27:48.062Z,19.19
2022-08-27T03:28:48.038Z,19.19
2022-08-27T03:29:48.074Z,19.18
2022-08-27T03:30:48.064Z,19.18
2022-08-27T03:31:48.108Z,19.18
2022-08-27T03:32:48.063Z,19.18
2022-08-27T03:33:48.034Z,19.17
2022-08-27T03:34:48.062Z,19.18
2022-08-27T03:35:51.634Z,19.18
2022-08-27T03:36:48.022Z,19.19
2022-08-27T03:37:48.066Z,19.20
2022-08-27T03:38:48.063Z,19.19
2022-08-27T03:39:48.076Z,19.20
2022-08-27T03:40:48.039Z,19.21
2022-08-27T03:41:54.450Z,19.21
2022-08-27T03:42:48.079Z,19.22
2022-08-27T03:43:48.078Z,19.22
2022-08-27T03:44:48.087Z,19.23
2022-08-27T03:46:00.437Z,19.23
2022-08-27T03:46:48.090Z,19.23
2022-08-27T03:47:48.079Z,19.22
2022-08-27T03:48:48.073Z,19.20
2022-08-27T03:49:48.086Z,19.19
2022-08-27T03:50:48.058Z,19.19
2022-08-27T03:51:48.056Z,19.20
2022-08-27T03:52:48.078Z,19.19
2022-08-27T03:53:48.082Z,19.20
2022-08-27T03:54:48.097Z,19.21
2022-08-27T03:55:48.065Z,19.19
2022-08-27T03:56:48.062Z,19.19
2022-08-27T03:57:48.093Z,19.18
2022-08-27T03:58:48.070Z,19.18
2022-08-27T03:59:48.097Z,19.16
2022-08-27T04:00:48.077Z,19.16
2022-08-27T04:01:48.147Z,19.17
2022-08-27T04:02:48.161Z,19.16
2022-08-27T04:03:48.073Z,19.15
2022-08-27T04:04:48.112Z,19.15
2022-08-27T04:05:48.090Z,19.12
2022-08-27T04:06:48.129Z,19.10
2022-08-27T04:07:48.078Z,19.11
2022-08-27T04:08:48.082Z,19.09
2022-08-27T04:09:48.098Z,19.09
2022-08-27T04:10:48.107Z,19.06
2022-08-27T04:11:48.077Z,19.05
2022-08-27T04:12:48.084Z,19.04
2022-08-27T04:13:48.084Z,19.03
2022-08-27T04:14:48.097Z,19.02
2022-08-27T04:15:48.153Z,19.02
2022-08-27T04:16:48.114Z,19.02
2022-08-27T04:17:48.121Z,19.01
2022-08-27T04:18:48.165Z,18.99
2022-08-27T04:19:48.190Z,19.00
2022-08-27T04:20:48.153Z,18.98
2022-08-27T04:21:48.207Z,18.98
2022-08-27T04:22:48.198Z,18.98
2022-08-27T04:23:48.238Z,18.99
2022-08-27T04:24:48.212Z,18.98
2022-08-27T04:25:48.255Z,18.98
2022-08-27T04:26:48.234Z,18.98
2022-08-27T04:27:48.289Z,18.99
2022-08-27T04:28:48.704Z,19.00
2022-08-27T04:29:48.297Z,19.01
2022-08-27T04:30:48.386Z,19.02
2022-08-27T04:31:48.306Z,19.03
2022-08-27T04:32:48.313Z,19.02
2022-08-27T04:33:51.257Z,19.02
2022-08-27T04:34:48.333Z,19.03
2022-08-27T04:35:48.321Z,19.02
2022-08-27T04:36:48.342Z,19.02
2022-08-27T04:37:48.343Z,19.02
2022-08-27T04:38:48.340Z,19.02
2022-08-27T04:39:50.283Z,19.02
2022-08-27T04:40:48.368Z,19.01
2022-08-27T04:41:48.364Z,19.01
2022-08-27T04:42:48.334Z,19.01
2022-08-27T04:43:48.348Z,19.01
2022-08-27T04:44:48.366Z,19.02
2022-08-27T04:45:48.343Z,19.01
2022-08-27T04:46:49.481Z,19.02
2022-08-27T04:47:48.366Z,19.04
2022-08-27T04:48:48.382Z,19.05
2022-08-27T04:49:48.363Z,19.05
2022-08-27T04:50:48.361Z,19.05
2022-08-27T04:51:48.377Z,19.05
2022-08-27T04:52:48.386Z,19.04
2022-08-27T04:53:48.361Z,19.05
2022-08-27T04:54:48.382Z,19.05
2022-08-27T04:55:48.380Z,19.06
2022-08-27T04:56:48.364Z,19.07
2022-08-27T04:57:48.353Z,19.08
2022-08-27T04:58:48.365Z,19.08
2022-08-27T04:59:48.383Z,19.10
2022-08-27T05:00:48.352Z,19.11
2022-08-27T05:01:48.396Z,19.11
2022-08-27T05:02:48.405Z,19.13
2022-08-27T05:03:48.355Z,19.12
2022-08-27T05:04:48.442Z,19.13
2022-08-27T05:05:48.391Z,19.12
2022-08-27T05:06:48.370Z,19.12
2022-08-27T05:07:48.370Z,19.12
2022-08-27T05:08:48.396Z,19.14
2022-08-27T05:09:48.403Z,19.15
2022-08-27T05:10:48.386Z,19.15
2022-08-27T05:11:48.387Z,19.16
2022-08-27T05:12:48.392Z,19.18
2022-08-27T05:13:48.382Z,19.19
2022-08-27T05:14:48.400Z,19.19
2022-08-27T05:15:48.390Z,19.20
2022-08-27T05:16:48.359Z,19.21
2022-08-27T05:17:48.373Z,19.22
2022-08-27T05:18:48.758Z,19.22
2022-08-27T05:19:48.425Z,19.23
2022-08-27T05:20:48.412Z,19.22
2022-08-27T05:21:48.385Z,19.22
2022-08-27T05:22:48.401Z,19.22
2022-08-27T05:23:48.423Z,19.19
2022-08-27T05:24:50.418Z,19.19
2022-08-27T05:25:48.437Z,19.18
2022-08-27T05:26:48.412Z,19.19
2022-08-27T05:27:48.447Z,19.17
2022-08-27T05:28:48.481Z,19.17
2022-08-27T05:29:48.493Z,19.16
2022-08-27T05:30:52.228Z,19.17
2022-08-27T05:31:48.489Z,19.16
2022-08-27T05:32:48.479Z,19.17
2022-08-27T05:33:48.526Z,19.17
2022-08-27T05:34:48.528Z,19.18
2022-08-27T05:35:48.507Z,19.18
2022-08-27T05:36:49.162Z,19.18
2022-08-27T05:37:48.541Z,19.19
2022-08-27T05:38:48.490Z,19.18
2022-08-27T05:39:48.521Z,19.18
2022-08-27T05:40:48.536Z,19.19
2022-08-27T05:41:48.529Z,19.19
2022-08-27T05:42:50.184Z,19.18
2022-08-27T05:43:50.345Z,19.18
2022-08-27T05:44:48.667Z,19.18
2022-08-27T05:45:48.663Z,19.18
2022-08-27T05:46:48.656Z,19.18
2022-08-27T05:47:48.689Z,19.18
2022-08-27T05:48:48.691Z,19.19
2022-08-27T05:49:48.714Z,19.18
2022-08-27T05:50:48.734Z,19.18
2022-08-27T05:51:48.724Z,19.19
2022-08-27T05:52:48.702Z,19.18
2022-08-27T05:53:48.760Z,19.17
2022-08-27T05:54:48.785Z,19.17
2022-08-27T05:55:48.771Z,19.17
2022-08-27T05:56:48.771Z,19.16
2022-08-27T05:57:48.789Z,19.18
2022-08-27T05:58:48.848Z,19.16
2022-08-27T05:59:48.825Z,19.17
2022-08-27T06:00:48.839Z,19.17
2022-08-27T06:01:48.866Z,19.18
2022-08-27T06:02:48.910Z,19.18
2022-08-27T06:03:48.879Z,19.16
2022-08-27T06:04:48.963Z,19.17
2022-08-27T06:05:48.901Z,19.17
2022-08-27T06:06:48.903Z,19.18
2022-08-27T06:07:48.933Z,19.18
2022-08-27T06:08:48.948Z,19.20
2022-08-27T06:09:48.968Z,19.21
2022-08-27T06:10:48.967Z,19.21
2022-08-27T06:11:48.973Z,19.21
2022-08-27T06:12:48.993Z,19.20
2022-08-27T06:13:48.976Z,19.22
2022-08-27T06:14:49.013Z,19.20
2022-08-27T06:15:49.068Z,19.19
2022-08-27T06:16:49.042Z,19.18
2022-08-27T06:17:49.023Z,19.19
2022-08-27T06:18:49.044Z,19.19
2022-08-27T06:19:49.072Z,19.20
2022-08-27T06:20:49.082Z,19.21
2022-08-27T06:22:00.470Z,19.22
2022-08-27T06:22:49.076Z,19.23
2022-08-27T06:23:49.081Z,19.24
2022-08-27T06:24:49.123Z,19.26
2022-08-27T06:25:49.081Z,19.27
2022-08-27T06:26:49.103Z,19.30
2022-08-27T06:27:49.140Z,19.30
2022-08-27T06:28:49.120Z,19.31
2022-08-27T06:29:49.127Z,19.30
2022-08-27T06:30:49.161Z,19.29
2022-08-27T06:31:49.089Z,19.31
2022-08-27T06:32:49.116Z,19.31
2022-08-27T06:33:49.093Z,19.33
2022-08-27T06:34:49.118Z,19.34
2022-08-27T06:35:49.099Z,19.36
2022-08-27T06:36:49.101Z,19.37
2022-08-27T06:37:49.133Z,19.40
2022-08-27T06:38:49.538Z,19.43
2022-08-27T06:39:49.111Z,19.47
2022-08-27T06:40:49.104Z,19.50
2022-08-27T06:41:49.119Z,19.52
2022-08-27T06:42:49.120Z,19.55
2022-08-27T06:43:49.128Z,19.55
2022-08-27T06:44:49.122Z,19.56
2022-08-27T06:45:49.184Z,19.58
2022-08-27T06:46:49.123Z,19.58
2022-08-27T06:47:49.145Z,19.58
2022-08-27T06:48:49.116Z,19.58
2022-08-27T06:49:49.159Z,19.59
2022-08-27T06:50:49.135Z,19.59
2022-08-27T06:51:49.138Z,19.61
2022-08-27T06:52:49.134Z,19.61
2022-08-27T06:53:49.123Z,19.62
2022-08-27T06:54:49.151Z,19.64
2022-08-27T06:55:49.134Z,19.69
2022-08-27T06:56:49.156Z,19.72
2022-08-27T06:57:49.150Z,19.75
2022-08-27T06:58:49.160Z,19.79
2022-08-27T06:59:49.161Z,19.85
2022-08-27T07:00:49.206Z,19.89
2022-08-27T07:01:49.282Z,19.91
2022-08-27T07:02:49.225Z,19.94
2022-08-27T07:03:49.354Z,19.97
2022-08-27T07:04:49.169Z,20.00
2022-08-27T07:05:49.173Z,20.03
2022-08-27T07:06:49.157Z,20.06
2022-08-27T07:07:49.171Z,20.10
2022-08-27T07:08:53.261Z,20.14
2022-08-27T07:09:49.179Z,20.20
2022-08-27T07:10:49.128Z,20.25
2022-08-27T07:11:49.146Z,20.31
2022-08-27T07:12:49.156Z,20.38
2022-08-27T07:13:49.173Z,20.44
2022-08-27T07:14:49.203Z,20.49
2022-08-27T07:15:49.191Z,20.56
2022-08-27T07:16:49.157Z,20.62
2022-08-27T07:17:49.162Z,20.69
2022-08-27T07:18:49.191Z,20.75
2022-08-27T07:19:49.184Z,20.81
2022-08-27T07:20:49.152Z,20.86
2022-08-27T07:21:49.170Z,20.89
2022-08-27T07:22:49.183Z,20.95
2022-08-27T07:23:49.154Z,21.00
2022-08-27T07:24:49.258Z,21.04
2022-08-27T07:25:49.166Z,21.03
2022-08-27T07:26:49.168Z,21.00
2022-08-27T07:27:49.191Z,20.96
2022-08-27T07:28:50.179Z,20.98
2022-08-27T07:29:49.181Z,20.99
2022-08-27T07:30:49.218Z,21.02
2022-08-27T07:31:49.218Z,21.04
2022-08-27T07:32:49.181Z,21.09
2022-08-27T07:33:52.185Z,21.13
2022-08-27T07:34:49.206Z,21.19
2022-08-27T07:35:49.193Z,21.24
2022-08-27T07:36:49.190Z,21.26
2022-08-27T07:37:49.194Z,21.24
2022-08-27T07:38:56.527Z,21.21
2022-08-27T07:39:49.206Z,21.19
2022-08-27T07:40:49.200Z,21.17
2022-08-27T07:41:49.179Z,21.17
2022-08-27T07:42:49.211Z,21.18
2022-08-27T07:43:49.209Z,21.18
2022-08-27T07:44:49.193Z,21.14
2022-08-27T07:45:49.282Z,21.10
2022-08-27T07:46:49.578Z,21.10
2022-08-27T07:47:49.174Z,21.16
2022-08-27T07:48:49.183Z,21.19
2022-08-27T07:49:49.198Z,21.22
2022-08-27T07:50:49.203Z,21.25
2022-08-27T07:51:49.182Z,21.33
2022-08-27T07:52:49.199Z,21.39
2022-08-27T07:53:49.215Z,21.45
2022-08-27T07:54:49.194Z,21.50
2022-08-27T07:55:49.206Z,21.55
2022-08-27T07:56:55.299Z,21.59
2022-08-27T07:57:49.237Z,21.61
2022-08-27T07:58:49.236Z,21.59
2022-08-27T07:59:49.212Z,21.60
2022-08-27T08:00:49.207Z,21.60
2022-08-27T08:01:49.254Z,21.60
2022-08-27T08:02:49.279Z,21.55
2022-08-27T08:03:49.234Z,21.49
2022-08-27T08:04:49.210Z,21.49
2022-08-27T08:05:49.210Z,21.48
2022-08-27T08:06:49.294Z,21.50
2022-08-27T08:07:49.241Z,21.49
2022-08-27T08:08:49.218Z,21.45
2022-08-27T08:09:49.225Z,21.42
2022-08-27T08:10:49.245Z,21.38
2022-08-27T08:11:49.257Z,21.40
2022-08-27T08:12:49.247Z,21.42
2022-08-27T08:13:49.248Z,21.48
2022-08-27T08:14:49.248Z,21.54
2022-08-27T08:15:49.227Z,21.62
2022-08-27T08:16:49.284Z,21.71
2022-08-27T08:17:49.247Z,21.79
2022-08-27T08:18:49.281Z,21.84
2022-08-27T08:20:02.626Z,21.85
2022-08-27T08:20:58.156Z,21.88
2022-08-27T08:21:49.252Z,21.93
2022-08-27T08:22:49.231Z,21.94
2022-08-27T08:23:49.259Z,21.99
2022-08-27T08:24:49.246Z,22.06
2022-08-27T08:25:49.263Z,22.15
2022-08-27T08:26:49.242Z,22.27
2022-08-27T08:27:49.241Z,22.35
2022-08-27T08:28:49.266Z,22.39
2022-08-27T08:29:49.263Z,22.40
2022-08-27T08:30:49.297Z,22.42
2022-08-27T08:31:50.134Z,22.50
2022-08-27T08:32:49.287Z,22.55
2022-08-27T08:33:49.274Z,22.58
2022-08-27T08:34:49.260Z,22.65
2022-08-27T08:35:49.257Z,22.70
2022-08-27T08:36:54.727Z,22.70
2022-08-27T08:37:49.284Z,22.64
2022-08-27T08:38:49.267Z,22.58
2022-08-27T08:39:49.282Z,22.51
2022-08-27T08:40:49.284Z,22.45
2022-08-27T08:41:49.290Z,22.35
2022-08-27T08:42:50.685Z,22.32
2022-08-27T08:43:49.305Z,22.33
2022-08-27T08:44:49.256Z,22.36
2022-08-27T08:45:49.346Z,22.35
2022-08-27T08:46:49.280Z,22.31
2022-08-27T08:47:49.306Z,22.24
2022-08-27T08:48:49.310Z,22.22
2022-08-27T08:49:49.311Z,22.22
2022-08-27T08:50:49.267Z,22.17
2022-08-27T08:51:49.289Z,22.13
2022-08-27T08:52:49.273Z,22.09
2022-08-27T08:53:49.452Z,22.09
2022-08-27T08:54:49.305Z,22.10
2022-08-27T08:55:49.276Z,22.10
2022-08-27T08:56:54.364Z,22.16
2022-08-27T08:57:49.286Z,22.21
2022-08-27T08:58:49.332Z,22.21
2022-08-27T08:59:49.297Z,22.18
2022-08-27T09:00:49.282Z,22.13
2022-08-27T09:01:49.361Z,22.08
2022-08-27T09:02:49.303Z,22.04
2022-08-27T09:03:49.358Z,22.04
2022-08-27T09:04:49.298Z,22.07
2022-08-27T09:05:49.313Z,22.11
2022-08-27T09:06:49.313Z,22.09
2022-08-27T09:07:49.312Z,22.09
2022-08-27T09:08:49.513Z,22.14
2022-08-27T09:09:49.319Z,22.21
2022-08-27T09:10:49.305Z,22.24
2022-08-27T09:11:49.293Z,22.25
2022-08-27T09:12:49.304Z,22.25
2022-08-27T09:13:49.345Z,22.28
2022-08-27T09:14:49.326Z,22.31
2022-08-27T09:15:49.293Z,22.35
2022-08-27T09:16:49.396Z,22.40
2022-08-27T09:17:49.323Z,22.46
2022-08-27T09:18:51.355Z,22.56
2022-08-27T09:19:52.375Z,22.64
2022-08-27T09:20:49.326Z,22.74
2022-08-27T09:21:49.334Z,22.84
2022-08-27T09:22:49.321Z,22.90
2022-08-27T09:23:49.344Z,22.93
2022-08-27T09:24:49.324Z,22.95
2022-08-27T09:25:49.369Z,22.98
2022-08-27T09:26:49.310Z,22.98
2022-08-27T09:27:49.324Z,23.01
2022-08-27T09:28:49.363Z,23.09
2022-08-27T09:29:49.362Z,23.20
2022-08-27T09:30:49.449Z,23.30
2022-08-27T09:31:49.367Z,23.31
2022-08-27T09:32:49.356Z,23.32
2022-08-27T09:33:56.025Z,23.37
2022-08-27T09:34:49.332Z,23.37
2022-08-27T09:35:49.350Z,23.40
2022-08-27T09:36:49.374Z,23.50
2022-08-27T09:37:49.362Z,23.55
2022-08-27T09:38:49.342Z,23.49
2022-08-27T09:39:49.386Z,23.45
2022-08-27T09:40:49.453Z,23.46
2022-08-27T09:41:49.332Z,23.44
2022-08-27T09:42:49.642Z,23.38
2022-08-27T09:43:49.341Z,23.39
2022-08-27T09:44:53.363Z,23.44
2022-08-27T09:45:49.443Z,23.52
2022-08-27T09:46:49.352Z,23.60
2022-08-27T09:47:49.362Z,23.72
2022-08-27T09:48:49.369Z,23.89
2022-08-27T09:49:49.413Z,24.01
2022-08-27T09:50:49.380Z,24.09
2022-08-27T09:51:49.353Z,24.18
2022-08-27T09:52:49.403Z,24.25
2022-08-27T09:53:50.159Z,24.34
2022-08-27T09:54:49.375Z,24.41
2022-08-27T09:55:49.369Z,24.43
2022-08-27T09:56:49.394Z,24.46
2022-08-27T09:57:49.372Z,24.53
2022-08-27T09:58:49.373Z,24.63
2022-08-27T09:59:49.390Z,24.70
2022-08-27T10:00:49.386Z,24.70
2022-08-27T10:01:49.372Z,24.75
2022-08-27T10:02:49.389Z,24.82
2022-08-27T10:03:49.417Z,24.88
2022-08-27T10:04:51.397Z,24.93
2022-08-27T10:05:49.388Z,24.95
2022-08-27T10:06:49.372Z,25.00
2022-08-27T10:07:49.439Z,25.00
2022-08-27T10:08:49.398Z,25.01
2022-08-27T10:09:49.396Z,25.09
2022-08-27T10:10:49.392Z,25.15
2022-08-27T10:11:49.395Z,25.10
2022-08-27T10:12:49.419Z,24.98
2022-08-27T10:13:49.391Z,24.96
2022-08-27T10:14:49.410Z,24.95
2022-08-27T10:15:49.746Z,24.98
2022-08-27T10:16:49.511Z,24.99
2022-08-27T10:17:49.477Z,24.96
2022-08-27T10:18:49.481Z,24.85
2022-08-27T10:19:49.471Z,24.85
2022-08-27T10:20:49.491Z,24.92
2022-08-27T10:21:49.509Z,25.07
2022-08-27T10:22:49.510Z,25.18
2022-08-27T10:23:49.514Z,25.33
2022-08-27T10:24:49.523Z,25.38
2022-08-27T10:25:49.545Z,25.25
2022-08-27T10:26:49.567Z,25.23
2022-08-27T10:27:49.596Z,25.20
2022-08-27T10:28:49.581Z,25.23
2022-08-27T10:29:49.612Z,25.33
2022-08-27T10:30:49.619Z,25.44
2022-08-27T10:31:49.746Z,25.55
2022-08-27T10:32:52.201Z,25.62
2022-08-27T10:33:49.623Z,25.62
2022-08-27T10:34:49.642Z,25.60
2022-08-27T10:35:54.568Z,25.66
2022-08-27T10:36:49.641Z,25.74
2022-08-27T10:37:49.648Z,25.77
2022-08-27T10:38:49.650Z,25.83
2022-08-27T10:39:49.634Z,25.88
2022-08-27T10:40:49.649Z,25.95
2022-08-27T10:41:49.662Z,25.98
2022-08-27T10:42:49.660Z,26.03
2022-08-27T10:43:49.636Z,26.02
2022-08-27T10:44:49.667Z,25.98
2022-08-27T10:45:49.724Z,25.94
2022-08-27T10:46:50.606Z,25.88
2022-08-27T10:47:49.658Z,25.79
2022-08-27T10:48:49.666Z,25.77
2022-08-27T10:49:49.663Z,25.81
2022-08-27T10:50:49.667Z,25.82
2022-08-27T10:51:49.670Z,25.83
2022-08-27T10:52:51.432Z,25.89
2022-08-27T10:53:49.674Z,25.91
2022-08-27T10:54:49.659Z,25.92
2022-08-27T10:55:49.678Z,25.85
2022-08-27T10:57:00.101Z,25.72
2022-08-27T10:57:58.915Z,25.62
2022-08-27T10:58:49.659Z,25.54
2022-08-27T10:59:49.665Z,25.45
2022-08-27T11:00:49.667Z,25.31
2022-08-27T11:01:49.717Z,25.18
2022-08-27T11:02:49.700Z,25.00
2022-08-27T11:03:49.689Z,24.79
2022-08-27T11:04:49.683Z,24.67
2022-08-27T11:05:49.721Z,24.44
2022-08-27T11:06:49.657Z,24.34
2022-08-27T11:07:49.694Z,24.37
2022-08-27T11:08:49.699Z,24.45
2022-08-27T11:09:52.637Z,24.46
2022-08-27T11:10:49.681Z,24.40
2022-08-27T11:12:13.268Z,24.27
2022-08-27T11:12:49.705Z,24.26
2022-08-27T11:13:49.686Z,24.25
2022-08-27T11:14:49.695Z,24.26
2022-08-27T11:15:49.689Z,24.22
2022-08-27T11:16:49.775Z,24.19
2022-08-27T11:17:49.722Z,24.18
2022-08-27T11:18:49.707Z,24.14
2022-08-27T11:19:49.709Z,24.03
2022-08-27T11:20:49.704Z,23.95
2022-08-27T11:21:49.697Z,23.87
2022-08-27T11:22:49.717Z,23.73
2022-08-27T11:23:49.709Z,23.64
2022-08-27T11:24:49.712Z,23.58
2022-08-27T11:25:49.711Z,23.52
2022-08-27T11:26:49.727Z,23.49
2022-08-27T11:27:49.733Z,23.45
2022-08-27T11:28:49.720Z,23.42
2022-08-27T11:29:49.748Z,23.40
2022-08-27T11:30:49.743Z,23.43
2022-08-27T11:31:49.795Z,23.46
2022-08-27T11:32:49.716Z,23.48
2022-08-27T11:33:49.708Z,23.54
2022-08-27T11:34:49.717Z,23.61
2022-08-27T11:35:49.714Z,23.66
2022-08-27T11:36:54.216Z,23.71
2022-08-27T11:37:49.752Z,23.73
2022-08-27T11:38:49.720Z,23.79
2022-08-27T11:39:51.880Z,23.85
2022-08-27T11:40:49.736Z,23.92
2022-08-27T11:41:49.735Z,24.00
2022-08-27T11:42:49.738Z,24.11
2022-08-27T11:43:49.729Z,24.23
2022-08-27T11:44:49.733Z,24.33
2022-08-27T11:45:49.742Z,24.42
2022-08-27T11:46:49.770Z,24.47
2022-08-27T11:47:49.777Z,24.52
2022-08-27T11:48:49.737Z,24.57
2022-08-27T11:49:49.749Z,24.59
2022-08-27T11:50:49.749Z,24.58
2022-08-27T11:51:49.746Z,24.51
2022-08-27T11:52:49.768Z,24.42
2022-08-27T11:53:52.228Z,24.33
2022-08-27T11:54:49.744Z,24.27
2022-08-27T11:55:49.738Z,24.24
2022-08-27T11:56:49.761Z,24.18
2022-08-27T11:57:49.754Z,24.12
2022-08-27T11:58:52.880Z,24.11
2022-08-27T11:59:49.738Z,24.08
2022-08-27T12:00:49.741Z,24.07
2022-08-27T12:01:49.740Z,24.06
2022-08-27T12:02:49.775Z,24.05
2022-08-27T12:03:49.846Z,24.01
2022-08-27T12:04:49.754Z,23.97
2022-08-27T12:05:49.780Z,23.92
2022-08-27T12:06:49.772Z,23.88
2022-08-27T12:07:49.782Z,23.85
2022-08-27T12:08:49.773Z,23.81
2022-08-27T12:09:49.755Z,23.79
2022-08-27T12:10:49.777Z,23.77
2022-08-27T12:11:53.387Z,23.76
2022-08-27T12:12:49.802Z,23.72
2022-08-27T12:13:49.783Z,23.69
2022-08-27T12:14:49.766Z,23.64
2022-08-27T12:15:49.793Z,23.58
2022-08-27T12:16:49.890Z,23.52
2022-08-27T12:17:49.809Z,23.46
2022-08-27T12:18:49.781Z,23.44
2022-08-27T12:19:49.794Z,23.48
2022-08-27T12:20:49.805Z,23.49
2022-08-27T12:21:49.786Z,23.48
2022-08-27T12:22:49.813Z,23.45
2022-08-27T12:23:49.803Z,23.43
2022-08-27T12:24:49.796Z,23.46
2022-08-27T12:25:49.830Z,23.47
2022-08-27T12:26:49.808Z,23.50
2022-08-27T12:27:49.845Z,23.50
2022-08-27T12:28:49.798Z,23.50
2022-08-27T12:29:49.806Z,23.52
2022-08-27T12:30:49.815Z,23.53
2022-08-27T12:31:49.832Z,23.54
2022-08-27T12:32:49.800Z,23.54
2022-08-27T12:33:49.800Z,23.47
2022-08-27T12:34:49.775Z,23.42
2022-08-27T12:35:49.794Z,23.39
2022-08-27T12:36:49.819Z,23.38
2022-08-27T12:37:49.809Z,23.40
2022-08-27T12:38:50.505Z,23.42
2022-08-27T12:39:49.803Z,23.37
2022-08-27T12:40:49.808Z,23.36
2022-08-27T12:41:49.806Z,23.32
2022-08-27T12:42:49.833Z,23.30
2022-08-27T12:43:49.807Z,23.29
2022-08-27T12:44:49.806Z,23.29
2022-08-27T12:45:49.810Z,23.29
2022-08-27T12:46:49.922Z,23.28
2022-08-27T12:47:50.845Z,23.30
2022-08-27T12:48:49.844Z,23.33
2022-08-27T12:49:55.116Z,23.37
2022-08-27T12:50:49.904Z,23.39
2022-08-27T12:51:49.820Z,23.43
2022-08-27T12:52:49.869Z,23.47